sensor_id;sensor_type;location;lat;lon;timestamp;pressure;altitude;pressure_sealevel;temperature;humidity
78909;BME280;68298;37.368;127.108;2023-03-23T00:01:22;99540.91;;;16.06;46.82
78909;BME280;68298;37.368;127.108;2023-03-23T00:03:54;99539.13;;;16.06;46.73
78909;BME280;68298;37.368;127.108;2023-03-23T00:06:27;99548.63;;;16.07;45.60
78909;BME280;68298;37.368;127.108;2023-03-23T00:09:01;99545.06;;;16.08;46.00
78909;BME280;68298;37.368;127.108;2023-03-23T00:11:31;99544.22;;;16.08;46.07
78909;BME280;68298;37.368;127.108;2023-03-23T00:14:00;99544.22;;;16.08;47.03
78909;BME280;68298;37.368;127.108;2023-03-23T00:16:32;99547.66;;;16.08;47.02
78909;BME280;68298;37.368;127.108;2023-03-23T00:19:07;99551.09;;;16.09;47.19
78909;BME280;68298;37.368;127.108;2023-03-23T00:21:37;99547.66;;;16.08;46.69
78909;BME280;68298;37.368;127.108;2023-03-23T00:24:11;99547.66;;;16.08;46.58
78909;BME280;68298;37.368;127.108;2023-03-23T00:26:45;99546.72;;;16.09;45.85
78909;BME280;68298;37.368;127.108;2023-03-23T00:29:19;99546.72;;;16.09;46.63
78909;BME280;68298;37.368;127.108;2023-03-23T00:31:52;99550.06;;;16.11;46.75
78909;BME280;68298;37.368;127.108;2023-03-23T00:34:22;99549.22;;;16.11;46.36
78909;BME280;68298;37.368;127.108;2023-03-23T00:36:54;99555.97;;;16.13;45.93
78909;BME280;68298;37.368;127.108;2023-03-23T00:39:27;99549.94;;;16.13;47.08
78909;BME280;68298;37.368;127.108;2023-03-23T00:41:55;99550.66;;;16.15;46.94
78909;BME280;68298;37.368;127.108;2023-03-23T00:44:29;99547.09;;;16.16;47.17
78909;BME280;68298;37.368;127.108;2023-03-23T00:46:58;99550.66;;;16.15;47.09
78909;BME280;68298;37.368;127.108;2023-03-23T00:49:26;99557.53;;;16.16;47.28
78909;BME280;68298;37.368;127.108;2023-03-23T00:51:58;99552.19;;;16.17;46.02
78909;BME280;68298;37.368;127.108;2023-03-23T00:54:27;99559.06;;;16.19;47.34
78909;BME280;68298;37.368;127.108;2023-03-23T00:56:55;99562.50;;;16.19;46.91
78909;BME280;68298;37.368;127.108;2023-03-23T00:59:24;99565.03;;;16.21;45.88
78909;BME280;68298;37.368;127.108;2023-03-23T01:01:52;99558.00;;;16.21;46.69
78909;BME280;68298;37.368;127.108;2023-03-23T01:04:21;99554.44;;;16.22;46.80
78909;BME280;68298;37.368;127.108;2023-03-23T01:06:50;99561.31;;;16.23;46.60
78909;BME280;68298;37.368;127.108;2023-03-23T01:09:19;99560.41;;;16.24;47.08
78909;BME280;68298;37.368;127.108;2023-03-23T01:11:51;99561.22;;;16.25;47.42
78909;BME280;68298;37.368;127.108;2023-03-23T01:14:23;99561.22;;;16.25;46.50
78909;BME280;68298;37.368;127.108;2023-03-23T01:16:52;99561.09;;;16.26;46.16
78909;BME280;68298;37.368;127.108;2023-03-23T01:19:21;99567.28;;;16.25;45.70
78909;BME280;68298;37.368;127.108;2023-03-23T01:21:49;99568.94;;;16.26;45.15
78909;BME280;68298;37.368;127.108;2023-03-23T01:24:17;99564.41;;;16.28;45.82
78909;BME280;68298;37.368;127.108;2023-03-23T01:26:45;99567.97;;;16.27;43.99
78909;BME280;68298;37.368;127.108;2023-03-23T01:29:14;99577.38;;;16.30;44.22
78909;BME280;68298;37.368;127.108;2023-03-23T01:31:42;99580.81;;;16.30;44.82
78909;BME280;68298;37.368;127.108;2023-03-23T01:34:11;99580.69;;;16.32;44.88
78909;BME280;68298;37.368;127.108;2023-03-23T01:36:39;99580.56;;;16.33;44.17
78909;BME280;68298;37.368;127.108;2023-03-23T01:39:07;99575.25;;;16.35;43.26
78909;BME280;68298;37.368;127.108;2023-03-23T01:41:36;99571.69;;;16.36;42.65
78909;BME280;68298;37.368;127.108;2023-03-23T01:46:59;99572.38;;;16.38;43.55
78909;BME280;68298;37.368;127.108;2023-03-23T01:49:33;99578.47;;;16.38;43.79
78909;BME280;68298;37.368;127.108;2023-03-23T01:52:14;99580.94;;;16.40;42.81
78909;BME280;68298;37.368;127.108;2023-03-23T01:54:47;99574.75;;;16.41;43.42
78909;BME280;68298;37.368;127.108;2023-03-23T01:57:19;99580.00;;;16.41;42.83
78909;BME280;68298;37.368;127.108;2023-03-23T01:59:52;99585.09;;;16.42;44.01
78909;BME280;68298;37.368;127.108;2023-03-23T02:02:27;99578.06;;;16.43;43.36
78909;BME280;68298;37.368;127.108;2023-03-23T02:05:01;99577.16;;;16.44;43.10
78909;BME280;68298;37.368;127.108;2023-03-23T02:07:32;99584.03;;;16.45;43.57
78909;BME280;68298;37.368;127.108;2023-03-23T02:10:03;99578.81;;;16.45;43.68
78909;BME280;68298;37.368;127.108;2023-03-23T02:12:33;99573.56;;;16.45;42.83
78909;BME280;68298;37.368;127.108;2023-03-23T02:15:03;99561.34;;;16.46;43.11
78909;BME280;68298;37.368;127.108;2023-03-23T02:20:38;99550.75;;;16.47;43.79
78909;BME280;68298;37.368;127.108;2023-03-23T02:26:19;99555.88;;;16.49;44.22
78909;BME280;68298;37.368;127.108;2023-03-23T02:34:42;99537.22;;;16.53;44.30
78909;BME280;68298;37.368;127.108;2023-03-23T02:40:18;99531.03;;;16.54;43.59
78909;BME280;68298;37.368;127.108;2023-03-23T02:42:51;99527.47;;;16.55;44.24
78909;BME280;68298;37.368;127.108;2023-03-23T02:45:22;99523.88;;;16.56;43.93
78909;BME280;68298;37.368;127.108;2023-03-23T02:47:53;99513.41;;;16.56;44.32
78909;BME280;68298;37.368;127.108;2023-03-23T02:50:24;99511.63;;;16.57;43.48
78909;BME280;68298;37.368;127.108;2023-03-23T02:52:56;99509.84;;;16.57;44.81
78909;BME280;68298;37.368;127.108;2023-03-23T02:55:28;99507.13;;;16.59;44.22
78909;BME280;68298;37.368;127.108;2023-03-23T02:58:01;99502.72;;;16.59;43.38
78909;BME280;68298;37.368;127.108;2023-03-23T03:00:30;99500.81;;;16.61;43.25
78909;BME280;68298;37.368;127.108;2023-03-23T03:02:59;99504.25;;;16.62;43.65
78909;BME280;68298;37.368;127.108;2023-03-23T03:08:13;99491.06;;;16.63;43.64
78909;BME280;68298;37.368;127.108;2023-03-23T03:14:15;99486.53;;;16.65;44.16
78909;BME280;68298;37.368;127.108;2023-03-23T03:19:42;99489.88;;;16.67;43.76
78909;BME280;68298;37.368;127.108;2023-03-23T03:21:55;99481.09;;;16.68;43.88
78909;BME280;68298;37.368;127.108;2023-03-23T03:24:38;99479.28;;;16.69;43.91
78909;BME280;68298;37.368;127.108;2023-03-23T03:27:16;99491.31;;;16.72;44.48
78909;BME280;68298;37.368;127.108;2023-03-23T03:29:55;99486.94;;;16.72;44.46
78909;BME280;68298;37.368;127.108;2023-03-23T03:32:34;99484.31;;;16.72;44.27
78909;BME280;68298;37.368;127.108;2023-03-23T03:35:06;99472.06;;;16.73;44.85
78909;BME280;68298;37.368;127.108;2023-03-23T03:37:36;99477.16;;;16.74;44.18
78909;BME280;68298;37.368;127.108;2023-03-23T03:40:09;99470.16;;;16.75;44.48
78909;BME280;68298;37.368;127.108;2023-03-23T03:42:42;99471.81;;;16.76;45.18
78909;BME280;68298;37.368;127.108;2023-03-23T03:45:15;99472.63;;;16.76;44.02
78909;BME280;68298;37.368;127.108;2023-03-23T03:47:44;99473.59;;;16.75;44.24
78909;BME280;68298;37.368;127.108;2023-03-23T03:50:13;99475.97;;;16.78;44.00
78909;BME280;68298;37.368;127.108;2023-03-23T03:52:41;99472.53;;;16.78;45.35
78909;BME280;68298;37.368;127.108;2023-03-23T03:55:10;99470.59;;;16.80;44.27
78909;BME280;68298;37.368;127.108;2023-03-23T03:57:42;99479.19;;;16.82;44.84
78909;BME280;68298;37.368;127.108;2023-03-23T04:00:28;99484.41;;;16.82;44.41
78909;BME280;68298;37.368;127.108;2023-03-23T04:02:56;99471.31;;;16.82;44.11
78909;BME280;68298;37.368;127.108;2023-03-23T04:05:54;99473.81;;;16.83;45.03
78909;BME280;68298;37.368;127.108;2023-03-23T04:08:23;99479.03;;;16.83;44.32
78909;BME280;68298;37.368;127.108;2023-03-23T04:10:51;99472.03;;;16.84;44.93
78909;BME280;68298;37.368;127.108;2023-03-23T04:13:21;99468.44;;;16.85;44.76
78909;BME280;68298;37.368;127.108;2023-03-23T04:16:04;99466.66;;;16.85;45.06
78909;BME280;68298;37.368;127.108;2023-03-23T04:18:34;99470.97;;;16.86;45.07
78909;BME280;68298;37.368;127.108;2023-03-23T04:21:04;99474.25;;;16.88;43.92
78909;BME280;68298;37.368;127.108;2023-03-23T04:23:36;99473.31;;;16.89;44.74
78909;BME280;68298;37.368;127.108;2023-03-23T04:26:07;99473.16;;;16.91;44.03
78909;BME280;68298;37.368;127.108;2023-03-23T04:28:40;99472.34;;;16.90;44.74
78909;BME280;68298;37.368;127.108;2023-03-23T04:31:29;99481.00;;;16.91;45.33
78909;BME280;68298;37.368;127.108;2023-03-23T04:34:08;99483.53;;;16.92;44.38
78909;BME280;68298;37.368;127.108;2023-03-23T04:36:42;99479.00;;;16.95;43.79
78909;BME280;68298;37.368;127.108;2023-03-23T04:39:16;99472.94;;;16.94;44.05
78909;BME280;68298;37.368;127.108;2023-03-23T04:41:46;99473.91;;;16.93;44.84
78909;BME280;68298;37.368;127.108;2023-03-23T04:44:22;99474.59;;;16.95;44.86
78909;BME280;68298;37.368;127.108;2023-03-23T04:47:05;99470.06;;;16.97;44.39
78909;BME280;68298;37.368;127.108;2023-03-23T04:49:43;99464.94;;;16.96;44.57
78909;BME280;68298;37.368;127.108;2023-03-23T04:52:38;99455.22;;;16.98;45.20
78909;BME280;68298;37.368;127.108;2023-03-23T04:55:09;99446.53;;;16.97;45.15
78909;BME280;68298;37.368;127.108;2023-03-23T04:57:39;99447.22;;;16.99;45.16
78909;BME280;68298;37.368;127.108;2023-03-23T05:00:36;99448.03;;;17.00;44.34
78909;BME280;68298;37.368;127.108;2023-03-23T05:03:05;99446.97;;;17.02;45.07
78909;BME280;68298;37.368;127.108;2023-03-23T05:05:35;99444.47;;;17.01;44.22
78909;BME280;68298;37.368;127.108;2023-03-23T05:08:07;99448.78;;;17.02;45.32
78909;BME280;68298;37.368;127.108;2023-03-23T05:10:39;99438.63;;;17.08;45.23
78909;BME280;68298;37.368;127.108;2023-03-23T05:13:12;99436.56;;;17.33;44.38
78909;BME280;68298;37.368;127.108;2023-03-23T05:15:41;99428.19;;;17.60;44.61
78909;BME280;68298;37.368;127.108;2023-03-23T05:18:09;99418.66;;;17.80;44.51
78909;BME280;68298;37.368;127.108;2023-03-23T05:20:38;99409.84;;;17.90;44.13
78909;BME280;68298;37.368;127.108;2023-03-23T05:23:13;99403.72;;;18.11;45.06
78909;BME280;68298;37.368;127.108;2023-03-23T05:25:42;99391.38;;;18.52;44.10
78909;BME280;68298;37.368;127.108;2023-03-23T05:28:15;99391.63;;;18.68;43.85
78909;BME280;68298;37.368;127.108;2023-03-23T05:30:53;99393.03;;;19.01;43.31
78909;BME280;68298;37.368;127.108;2023-03-23T05:33:27;99397.72;;;19.17;43.51
78909;BME280;68298;37.368;127.108;2023-03-23T05:36:19;99392.25;;;19.38;43.71
78909;BME280;68298;37.368;127.108;2023-03-23T05:39:04;99397.38;;;19.39;42.99
78909;BME280;68298;37.368;127.108;2023-03-23T05:41:53;99396.69;;;19.37;43.14
78909;BME280;68298;37.368;127.108;2023-03-23T05:44:24;99391.44;;;19.37;42.95
78909;BME280;68298;37.368;127.108;2023-03-23T05:46:58;99393.63;;;19.42;43.50
78909;BME280;68298;37.368;127.108;2023-03-23T05:49:27;99387.66;;;19.49;43.97
78909;BME280;68298;37.368;127.108;2023-03-23T05:51:56;99385.88;;;19.50;43.56
78909;BME280;68298;37.368;127.108;2023-03-23T05:54:26;99385.56;;;19.53;43.21
78909;BME280;68298;37.368;127.108;2023-03-23T05:56:55;99389.59;;;19.47;44.10
78909;BME280;68298;37.368;127.108;2023-03-23T05:59:36;99391.53;;;19.55;43.67
78909;BME280;68298;37.368;127.108;2023-03-23T06:02:06;99382.66;;;19.56;43.77
78909;BME280;68298;37.368;127.108;2023-03-23T06:04:35;99389.09;;;19.34;43.96
78909;BME280;68298;37.368;127.108;2023-03-23T06:07:14;99394.53;;;19.23;44.32
78909;BME280;68298;37.368;127.108;2023-03-23T06:09:52;99396.59;;;19.10;44.31
78909;BME280;68298;37.368;127.108;2023-03-23T06:12:24;99397.59;;;18.99;44.63
78909;BME280;68298;37.368;127.108;2023-03-23T06:15:11;99406.03;;;18.93;44.27
78909;BME280;68298;37.368;127.108;2023-03-23T06:18:03;99401.19;;;18.98;44.53
78909;BME280;68298;37.368;127.108;2023-03-23T06:20:53;99400.72;;;19.32;43.55
78909;BME280;68298;37.368;127.108;2023-03-23T06:23:46;99399.75;;;19.33;44.00
78909;BME280;68298;37.368;127.108;2023-03-23T06:26:18;99388.22;;;19.43;43.27
78909;BME280;68298;37.368;127.108;2023-03-23T06:28:53;99392.97;;;19.30;43.90
78909;BME280;68298;37.368;127.108;2023-03-23T06:31:22;99411.25;;;19.22;43.52
78909;BME280;68298;37.368;127.108;2023-03-23T06:33:50;99415.78;;;19.30;44.03
78909;BME280;68298;37.368;127.108;2023-03-23T06:36:25;99412.44;;;19.37;43.94
78909;BME280;68298;37.368;127.108;2023-03-23T06:39:08;99420.84;;;19.51;43.71
78909;BME280;68298;37.368;127.108;2023-03-23T06:41:57;99412.41;;;19.47;43.74
78909;BME280;68298;37.368;127.108;2023-03-23T06:44:33;99412.72;;;19.34;43.86
78909;BME280;68298;37.368;127.108;2023-03-23T06:47:02;99402.94;;;19.36;43.53
78909;BME280;68298;37.368;127.108;2023-03-23T06:49:34;99407.13;;;19.57;43.34
78909;BME280;68298;37.368;127.108;2023-03-23T06:52:13;99405.59;;;19.64;43.80
78909;BME280;68298;37.368;127.108;2023-03-23T06:54:41;99399.25;;;19.66;44.10
78909;BME280;68298;37.368;127.108;2023-03-23T06:57:11;99405.63;;;19.54;43.93
78909;BME280;68298;37.368;127.108;2023-03-23T06:59:39;99395.72;;;19.38;43.90
78909;BME280;68298;37.368;127.108;2023-03-23T07:02:12;99392.94;;;19.40;43.57
78909;BME280;68298;37.368;127.108;2023-03-23T07:04:48;99388.47;;;19.69;43.62
78909;BME280;68298;37.368;127.108;2023-03-23T07:07:22;99391.03;;;19.79;43.14
78909;BME280;68298;37.368;127.108;2023-03-23T07:09:58;99391.72;;;19.81;42.61
78909;BME280;68298;37.368;127.108;2023-03-23T07:12:27;99390.97;;;19.61;43.35
78909;BME280;68298;37.368;127.108;2023-03-23T07:14:56;99401.06;;;19.56;43.54
78909;BME280;68298;37.368;127.108;2023-03-23T07:17:25;99389.41;;;19.59;42.90
78909;BME280;68298;37.368;127.108;2023-03-23T07:20:06;99388.50;;;19.87;42.54
78909;BME280;68298;37.368;127.108;2023-03-23T07:22:35;99385.53;;;20.00;42.07
78909;BME280;68298;37.368;127.108;2023-03-23T07:25:11;99385.75;;;19.89;41.86
78909;BME280;68298;37.368;127.108;2023-03-23T07:27:50;99386.84;;;19.86;42.06
78909;BME280;68298;37.368;127.108;2023-03-23T07:30:19;99389.00;;;20.01;41.60
78909;BME280;68298;37.368;127.108;2023-03-23T07:32:47;99390.91;;;20.08;41.24
78909;BME280;68298;37.368;127.108;2023-03-23T07:35:16;99393.22;;;20.11;41.34
78909;BME280;68298;37.368;127.108;2023-03-23T07:38:16;99386.84;;;20.14;40.43
78909;BME280;68298;37.368;127.108;2023-03-23T07:40:48;99383.56;;;20.02;40.89
78909;BME280;68298;37.368;127.108;2023-03-23T07:43:19;99377.66;;;20.00;40.99
78909;BME280;68298;37.368;127.108;2023-03-23T07:45:53;99374.81;;;20.11;40.43
78909;BME280;68298;37.368;127.108;2023-03-23T07:48:26;99361.84;;;20.28;40.32
78909;BME280;68298;37.368;127.108;2023-03-23T07:50:54;99362.75;;;20.36;39.73
78909;BME280;68298;37.368;127.108;2023-03-23T07:53:22;99367.28;;;20.16;39.72
78909;BME280;68298;37.368;127.108;2023-03-23T07:56:05;99373.22;;;20.01;40.73
78909;BME280;68298;37.368;127.108;2023-03-23T07:58:51;99381.28;;;20.17;40.00
78909;BME280;68298;37.368;127.108;2023-03-23T08:01:20;99385.13;;;20.22;39.74
78909;BME280;68298;37.368;127.108;2023-03-23T08:04:09;99377.16;;;20.14;39.64
78909;BME280;68298;37.368;127.108;2023-03-23T08:06:57;99375.78;;;20.10;39.17
78909;BME280;68298;37.368;127.108;2023-03-23T08:09:48;99376.97;;;19.98;38.85
78909;BME280;68298;37.368;127.108;2023-03-23T08:12:39;99398.34;;;19.85;39.47
78909;BME280;68298;37.368;127.108;2023-03-23T08:15:38;99401.69;;;19.78;39.27
78909;BME280;68298;37.368;127.108;2023-03-23T08:18:45;99403.66;;;19.76;39.75
78909;BME280;68298;37.368;127.108;2023-03-23T08:21:29;99414.97;;;19.76;39.05
78909;BME280;68298;37.368;127.108;2023-03-23T08:24:11;99421.22;;;19.75;39.58
78909;BME280;68298;37.368;127.108;2023-03-23T08:26:46;99425.09;;;19.71;39.24
78909;BME280;68298;37.368;127.108;2023-03-23T08:29:33;99428.16;;;19.66;38.87
78909;BME280;68298;37.368;127.108;2023-03-23T08:32:27;99441.03;;;19.60;38.88
78909;BME280;68298;37.368;127.108;2023-03-23T08:35:28;99442.38;;;19.54;39.89
78909;BME280;68298;37.368;127.108;2023-03-23T08:38:14;99453.19;;;19.51;39.63
78909;BME280;68298;37.368;127.108;2023-03-23T08:41:15;99465.78;;;19.47;39.11
78909;BME280;68298;37.368;127.108;2023-03-23T08:43:52;99461.78;;;19.43;39.12
78909;BME280;68298;37.368;127.108;2023-03-23T08:46:52;99463.19;;;19.38;39.41
78909;BME280;68298;37.368;127.108;2023-03-23T08:49:46;99457.25;;;19.36;39.55
78909;BME280;68298;37.368;127.108;2023-03-23T08:52:46;99457.66;;;19.31;39.00
78909;BME280;68298;37.368;127.108;2023-03-23T08:55:21;99453.50;;;19.29;39.21
78909;BME280;68298;37.368;127.108;2023-03-23T08:58:02;99448.53;;;19.26;39.16
78909;BME280;68298;37.368;127.108;2023-03-23T09:00:50;99461.97;;;19.22;39.55
78909;BME280;68298;37.368;127.108;2023-03-23T09:03:45;99461.41;;;19.19;38.92
78909;BME280;68298;37.368;127.108;2023-03-23T09:06:20;99473.16;;;19.15;39.46
78909;BME280;68298;37.368;127.108;2023-03-23T09:08:48;99472.31;;;19.14;39.48
78909;BME280;68298;37.368;127.108;2023-03-23T09:11:17;99477.00;;;19.11;39.60
78909;BME280;68298;37.368;127.108;2023-03-23T09:13:45;99482.41;;;19.09;39.32
78909;BME280;68298;37.368;127.108;2023-03-23T09:16:14;99499.41;;;19.05;39.94
78909;BME280;68298;37.368;127.108;2023-03-23T09:18:42;99506.59;;;19.03;39.68
78909;BME280;68298;37.368;127.108;2023-03-23T09:21:11;99516.38;;;19.01;38.74
78909;BME280;68298;37.368;127.108;2023-03-23T09:23:40;99528.13;;;18.97;40.01
78909;BME280;68298;37.368;127.108;2023-03-23T09:26:11;99535.31;;;18.95;39.52
78909;BME280;68298;37.368;127.108;2023-03-23T09:28:40;99538.91;;;18.94;39.09
78909;BME280;68298;37.368;127.108;2023-03-23T09:31:08;99550.50;;;18.91;39.39
78909;BME280;68298;37.368;127.108;2023-03-23T09:33:38;99549.81;;;18.89;39.21
78909;BME280;68298;37.368;127.108;2023-03-23T09:36:07;99549.97;;;18.88;39.19
78909;BME280;68298;37.368;127.108;2023-03-23T09:38:40;99551.88;;;18.86;39.09
78909;BME280;68298;37.368;127.108;2023-03-23T09:41:36;99561.69;;;18.84;39.33
78909;BME280;68298;37.368;127.108;2023-03-23T09:47:21;99569.13;;;18.79;39.57
78909;BME280;68298;37.368;127.108;2023-03-23T09:50:19;99563.19;;;18.77;39.02
78909;BME280;68298;37.368;127.108;2023-03-23T09:53:14;99567.75;;;18.75;39.31
78909;BME280;68298;37.368;127.108;2023-03-23T09:55:44;99574.91;;;18.73;39.29
78909;BME280;68298;37.368;127.108;2023-03-23T09:58:30;99572.44;;;18.71;39.36
78909;BME280;68298;37.368;127.108;2023-03-23T10:01:27;99582.22;;;18.69;39.45
78909;BME280;68298;37.368;127.108;2023-03-23T10:06:48;99597.38;;;18.65;39.06
78909;BME280;68298;37.368;127.108;2023-03-23T10:09:18;99600.13;;;18.64;39.17
78909;BME280;68298;37.368;127.108;2023-03-23T10:12:30;99603.59;;;18.64;39.34
78909;BME280;68298;37.368;127.108;2023-03-23T10:18:00;99624.69;;;18.63;39.09
78909;BME280;68298;37.368;127.108;2023-03-23T10:20:42;99621.22;;;18.62;39.29
78909;BME280;68298;37.368;127.108;2023-03-23T10:29:11;99636.53;;;18.57;39.25
78909;BME280;68298;37.368;127.108;2023-03-23T10:31:57;99641.94;;;18.56;39.37
78909;BME280;68298;37.368;127.108;2023-03-23T10:34:59;99649.78;;;18.56;39.46
78909;BME280;68298;37.368;127.108;2023-03-23T10:37:36;99650.03;;;18.53;39.50
78909;BME280;68298;37.368;127.108;2023-03-23T10:40:14;99651.16;;;18.50;38.96
78909;BME280;68298;37.368;127.108;2023-03-23T10:42:43;99659.13;;;18.49;39.15
78909;BME280;68298;37.368;127.108;2023-03-23T10:45:44;99677.78;;;18.45;39.31
78909;BME280;68298;37.368;127.108;2023-03-23T10:48:27;99681.22;;;18.46;39.10
78909;BME280;68298;37.368;127.108;2023-03-23T10:51:04;99684.09;;;18.43;39.11
78909;BME280;68298;37.368;127.108;2023-03-23T10:53:42;99690.31;;;18.42;39.18
78909;BME280;68298;37.368;127.108;2023-03-23T10:56:43;99696.53;;;18.41;38.97
78909;BME280;68298;37.368;127.108;2023-03-23T10:59:25;99699.38;;;18.38;39.26
78909;BME280;68298;37.368;127.108;2023-03-23T11:01:59;99712.50;;;18.38;38.79
78909;BME280;68298;37.368;127.108;2023-03-23T11:04:31;99711.66;;;18.37;38.93
78909;BME280;68298;37.368;127.108;2023-03-23T11:07:03;99721.34;;;18.37;38.83
78909;BME280;68298;37.368;127.108;2023-03-23T11:09:52;99725.16;;;18.33;38.93
78909;BME280;68298;37.368;127.108;2023-03-23T11:12:21;99731.38;;;18.32;38.67
78909;BME280;68298;37.368;127.108;2023-03-23T11:14:50;99726.38;;;18.29;39.45
78909;BME280;68298;37.368;127.108;2023-03-23T11:17:25;99743.75;;;18.30;38.92
78909;BME280;68298;37.368;127.108;2023-03-23T11:19:54;99750.94;;;18.28;39.07
78909;BME280;68298;37.368;127.108;2023-03-23T11:22:31;99757.16;;;18.27;38.83
78909;BME280;68298;37.368;127.108;2023-03-23T11:25:04;99754.63;;;18.25;39.22
78909;BME280;68298;37.368;127.108;2023-03-23T11:27:34;99754.75;;;18.24;38.65
78909;BME280;68298;37.368;127.108;2023-03-23T11:30:21;99772.44;;;18.22;38.43
78909;BME280;68298;37.368;127.108;2023-03-23T11:32:51;99776.84;;;18.21;38.88
78909;BME280;68298;37.368;127.108;2023-03-23T11:35:26;99782.09;;;18.21;38.80
78909;BME280;68298;37.368;127.108;2023-03-23T11:37:56;99790.06;;;18.19;38.46
78909;BME280;68298;37.368;127.108;2023-03-23T11:40:30;99811.16;;;18.18;39.09
78909;BME280;68298;37.368;127.108;2023-03-23T11:43:07;99810.47;;;18.16;38.69
78909;BME280;68298;37.368;127.108;2023-03-23T11:45:40;99810.56;;;18.14;38.42
78909;BME280;68298;37.368;127.108;2023-03-23T11:48:32;99810.56;;;18.14;38.49
78909;BME280;68298;37.368;127.108;2023-03-23T11:51:17;99819.25;;;18.15;38.84
78909;BME280;68298;37.368;127.108;2023-03-23T11:53:56;99816.91;;;18.12;38.41
78909;BME280;68298;37.368;127.108;2023-03-23T11:56:30;99811.78;;;18.10;38.44
78909;BME280;68298;37.368;127.108;2023-03-23T11:59:01;99813.56;;;18.10;38.63
78909;BME280;68298;37.368;127.108;2023-03-23T12:07:08;99814.66;;;18.07;37.93
78909;BME280;68298;37.368;127.108;2023-03-23T12:15:36;99823.97;;;18.00;36.62
78909;BME280;68298;37.368;127.108;2023-03-23T12:18:19;99830.16;;;17.99;37.08
78909;BME280;68298;37.368;127.108;2023-03-23T12:24:05;99834.81;;;17.95;36.96
78909;BME280;68298;37.368;127.108;2023-03-23T12:29:34;99846.38;;;17.93;36.67
78909;BME280;68298;37.368;127.108;2023-03-23T12:32:35;99847.44;;;17.90;36.56
78909;BME280;68298;37.368;127.108;2023-03-23T12:38:26;99846.63;;;17.90;36.93
78909;BME280;68298;37.368;127.108;2023-03-23T12:43:50;99857.22;;;17.88;36.49
78909;BME280;68298;37.368;127.108;2023-03-23T12:49:16;99861.88;;;17.85;36.15
78909;BME280;68298;37.368;127.108;2023-03-23T13:06:33;99889.53;;;17.78;35.74
78909;BME280;68298;37.368;127.108;2023-03-23T13:11:39;99897.75;;;17.73;36.07
78909;BME280;68298;37.368;127.108;2023-03-23T13:19:58;99908.66;;;17.67;35.57
78909;BME280;68298;37.368;127.108;2023-03-23T13:22:44;99909.47;;;17.67;35.07
78909;BME280;68298;37.368;127.108;2023-03-23T13:25:35;99911.53;;;17.64;35.07
78909;BME280;68298;37.368;127.108;2023-03-23T13:28:18;99916.63;;;17.65;35.06
78909;BME280;68298;37.368;127.108;2023-03-23T13:33:35;99913.41;;;17.62;35.85
78909;BME280;68298;37.368;127.108;2023-03-23T13:36:12;99916.97;;;17.61;35.29
78909;BME280;68298;37.368;127.108;2023-03-23T13:38:51;99924.97;;;17.59;35.87
78909;BME280;68298;37.368;127.108;2023-03-23T13:41:21;99934.72;;;17.57;35.27
78909;BME280;68298;37.368;127.108;2023-03-23T13:43:51;99947.72;;;17.59;35.75
78909;BME280;68298;37.368;127.108;2023-03-23T13:57:03;99966.63;;;17.51;35.59
78909;BME280;68298;37.368;127.108;2023-03-23T13:59:35;99976.88;;;17.54;35.64
78909;BME280;68298;37.368;127.108;2023-03-23T14:08:00;99990.41;;;17.48;35.21
78909;BME280;68298;37.368;127.108;2023-03-23T14:10:56;99999.22;;;17.47;34.99
78909;BME280;68298;37.368;127.108;2023-03-23T14:13:38;100003.41;;;17.50;35.00
78909;BME280;68298;37.368;127.108;2023-03-23T14:16:36;100001.00;;;17.47;35.62
78909;BME280;68298;37.368;127.108;2023-03-23T14:19:24;100001.00;;;17.47;35.28
78909;BME280;68298;37.368;127.108;2023-03-23T14:21:55;100001.84;;;17.47;34.90
78909;BME280;68298;37.368;127.108;2023-03-23T14:24:24;100001.22;;;17.43;34.72
78909;BME280;68298;37.368;127.108;2023-03-23T14:27:15;100000.53;;;17.41;35.52
78909;BME280;68298;37.368;127.108;2023-03-23T14:29:44;99995.91;;;17.45;35.05
78909;BME280;68298;37.368;127.108;2023-03-23T14:32:16;99998.75;;;17.42;34.49
78909;BME280;68298;37.368;127.108;2023-03-23T14:34:48;100004.81;;;17.42;35.33
78909;BME280;68298;37.368;127.108;2023-03-23T14:37:17;99996.47;;;17.37;34.58
78909;BME280;68298;37.368;127.108;2023-03-23T14:39:52;99995.63;;;17.37;34.72
78909;BME280;68298;37.368;127.108;2023-03-23T14:42:32;99994.94;;;17.35;35.07
78909;BME280;68298;37.368;127.108;2023-03-23T14:45:05;100006.44;;;17.32;34.96
78909;BME280;68298;37.368;127.108;2023-03-23T14:47:45;100001.09;;;17.34;35.23
78909;BME280;68298;37.368;127.108;2023-03-23T14:55:54;100014.53;;;17.29;35.57
78909;BME280;68298;37.368;127.108;2023-03-23T14:58:24;100019.88;;;17.28;34.65
78909;BME280;68298;37.368;127.108;2023-03-23T15:01:10;100016.44;;;17.27;34.96
78909;BME280;68298;37.368;127.108;2023-03-23T15:03:51;100021.31;;;17.32;35.07
78909;BME280;68298;37.368;127.108;2023-03-23T15:06:22;100023.25;;;17.30;35.44
78909;BME280;68298;37.368;127.108;2023-03-23T15:08:56;100027.94;;;17.25;34.90
78909;BME280;68298;37.368;127.108;2023-03-23T15:11:32;100017.94;;;17.18;35.40
78909;BME280;68298;37.368;127.108;2023-03-23T15:14:08;100017.09;;;17.18;36.06
78909;BME280;68298;37.368;127.108;2023-03-23T15:16:37;100013.09;;;17.25;35.66
78909;BME280;68298;37.368;127.108;2023-03-23T15:19:17;100014.78;;;17.26;34.63
78909;BME280;68298;37.368;127.108;2023-03-23T15:21:49;100008.44;;;17.29;35.56